sensor_id;sensor_type;location;lat;lon;timestamp;P1;durP1;ratioP1;P2;durP2;ratioP2
9906;SDS011;4992;51.628;6.664;2022-08-26T00:00:47;22.55;;;20.55;;
9906;SDS011;4992;51.628;6.664;2022-08-26T00:03:14;25.58;;;22.83;;
9906;SDS011;4992;51.628;6.664;2022-08-26T00:05:40;24.98;;;21.58;;
9906;SDS011;4992;51.628;6.664;2022-08-26T00:08:07;24.63;;;22.30;;
9906;SDS011;4992;51.628;6.664;2022-08-26T00:10:34;27.30;;;24.65;;
9906;SDS011;4992;51.628;6.664;2022-08-26T00:12:59;28.85;;;25.92;;
9906;SDS011;4992;51.628;6.664;2022-08-26T00:15:25;28.98;;;26.02;;
9906;SDS011;4992;51.628;6.664;2022-08-26T00:17:51;30.45;;;27.75;;
9906;SDS011;4992;51.628;6.664;2022-08-26T00:20:19;32.60;;;29.05;;
9906;SDS011;4992;51.628;6.664;2022-08-26T00:22:48;31.55;;;28.42;;
9906;SDS011;4992;51.628;6.664;2022-08-26T00:25:13;33.08;;;30.17;;
9906;SDS011;4992;51.628;6.664;2022-08-26T00:27:39;33.17;;;30.02;;
9906;SDS011;4992;51.628;6.664;2022-08-26T00:30:08;33.55;;;30.35;;
9906;SDS011;4992;51.628;6.664;2022-08-26T00:32:36;32.47;;;29.35;;
9906;SDS011;4992;51.628;6.664;2022-08-26T00:35:03;33.78;;;30.58;;
9906;SDS011;4992;51.628;6.664;2022-08-26T00:37:29;34.17;;;30.95;;
9906;SDS011;4992;51.628;6.664;2022-08-26T00:39:55;34.78;;;31.25;;
9906;SDS011;4992;51.628;6.664;2022-08-26T00:42:21;35.17;;;31.75;;
9906;SDS011;4992;51.628;6.664;2022-08-26T00:44:47;35.80;;;32.40;;
9906;SDS011;4992;51.628;6.664;2022-08-26T00:47:16;36.65;;;33.15;;
9906;SDS011;4992;51.628;6.664;2022-08-26T00:50:09;36.80;;;33.05;;
9906;SDS011;4992;51.628;6.664;2022-08-26T00:52:37;37.13;;;33.60;;
9906;SDS011;4992;51.628;6.664;2022-08-26T00:55:06;37.50;;;34.10;;
9906;SDS011;4992;51.628;6.664;2022-08-26T00:57:37;37.45;;;34.13;;
9906;SDS011;4992;51.628;6.664;2022-08-26T01:00:08;39.38;;;35.50;;
9906;SDS011;4992;51.628;6.664;2022-08-26T01:02:37;41.00;;;37.00;;
9906;SDS011;4992;51.628;6.664;2022-08-26T01:05:04;38.95;;;35.20;;
9906;SDS011;4992;51.628;6.664;2022-08-26T01:07:31;38.45;;;34.58;;
9906;SDS011;4992;51.628;6.664;2022-08-26T01:09:58;38.97;;;35.35;;
9906;SDS011;4992;51.628;6.664;2022-08-26T01:12:25;40.50;;;36.80;;
9906;SDS011;4992;51.628;6.664;2022-08-26T01:14:52;39.33;;;35.70;;
9906;SDS011;4992;51.628;6.664;2022-08-26T01:17:19;43.22;;;39.08;;
9906;SDS011;4992;51.628;6.664;2022-08-26T01:19:46;41.50;;;37.50;;
9906;SDS011;4992;51.628;6.664;2022-08-26T01:22:26;40.45;;;36.65;;
9906;SDS011;4992;51.628;6.664;2022-08-26T01:25:02;39.47;;;35.63;;
9906;SDS011;4992;51.628;6.664;2022-08-26T01:27:29;41.85;;;37.75;;
9906;SDS011;4992;51.628;6.664;2022-08-26T01:29:56;40.35;;;36.67;;
9906;SDS011;4992;51.628;6.664;2022-08-26T01:32:22;39.47;;;35.97;;
9906;SDS011;4992;51.628;6.664;2022-08-26T01:34:49;40.45;;;36.53;;
9906;SDS011;4992;51.628;6.664;2022-08-26T01:37:21;38.83;;;35.10;;
9906;SDS011;4992;51.628;6.664;2022-08-26T01:39:52;39.25;;;35.42;;
9906;SDS011;4992;51.628;6.664;2022-08-26T01:42:20;39.05;;;35.38;;
9906;SDS011;4992;51.628;6.664;2022-08-26T01:44:51;40.10;;;36.42;;
9906;SDS011;4992;51.628;6.664;2022-08-26T01:47:28;39.70;;;36.13;;
9906;SDS011;4992;51.628;6.664;2022-08-26T01:49:56;39.20;;;35.42;;
9906;SDS011;4992;51.628;6.664;2022-08-26T01:52:25;40.75;;;36.67;;
9906;SDS011;4992;51.628;6.664;2022-08-26T01:54:53;39.22;;;35.50;;
9906;SDS011;4992;51.628;6.664;2022-08-26T01:57:21;39.63;;;35.92;;
9906;SDS011;4992;51.628;6.664;2022-08-26T01:59:48;40.13;;;36.10;;
9906;SDS011;4992;51.628;6.664;2022-08-26T02:02:14;39.25;;;35.45;;
9906;SDS011;4992;51.628;6.664;2022-08-26T02:04:51;36.88;;;33.17;;
9906;SDS011;4992;51.628;6.664;2022-08-26T02:07:21;35.85;;;32.28;;
9906;SDS011;4992;51.628;6.664;2022-08-26T02:09:48;38.05;;;34.03;;
9906;SDS011;4992;51.628;6.664;2022-08-26T02:12:13;37.63;;;34.00;;
9906;SDS011;4992;51.628;6.664;2022-08-26T02:14:43;38.05;;;34.08;;
9906;SDS011;4992;51.628;6.664;2022-08-26T02:17:14;35.78;;;32.22;;
9906;SDS011;4992;51.628;6.664;2022-08-26T02:19:45;35.85;;;32.40;;
9906;SDS011;4992;51.628;6.664;2022-08-26T02:22:13;34.25;;;30.58;;
9906;SDS011;4992;51.628;6.664;2022-08-26T02:24:46;32.10;;;28.90;;
9906;SDS011;4992;51.628;6.664;2022-08-26T02:27:16;34.47;;;31.15;;
9906;SDS011;4992;51.628;6.664;2022-08-26T02:29:46;34.28;;;30.98;;
9906;SDS011;4992;51.628;6.664;2022-08-26T02:32:14;34.55;;;30.27;;
9906;SDS011;4992;51.628;6.664;2022-08-26T02:34:40;33.53;;;30.13;;
9906;SDS011;4992;51.628;6.664;2022-08-26T02:37:06;33.83;;;30.50;;
9906;SDS011;4992;51.628;6.664;2022-08-26T02:39:34;33.22;;;29.70;;
9906;SDS011;4992;51.628;6.664;2022-08-26T02:42:01;34.53;;;30.83;;
9906;SDS011;4992;51.628;6.664;2022-08-26T02:44:27;31.92;;;28.80;;
9906;SDS011;4992;51.628;6.664;2022-08-26T02:46:53;33.85;;;29.20;;
9906;SDS011;4992;51.628;6.664;2022-08-26T02:49:20;32.35;;;29.25;;
9906;SDS011;4992;51.628;6.664;2022-08-26T02:51:46;31.45;;;28.55;;
9906;SDS011;4992;51.628;6.664;2022-08-26T02:54:13;32.42;;;29.17;;
9906;SDS011;4992;51.628;6.664;2022-08-26T02:56:39;33.22;;;29.77;;
9906;SDS011;4992;51.628;6.664;2022-08-26T02:59:05;29.88;;;26.88;;
9906;SDS011;4992;51.628;6.664;2022-08-26T03:01:31;30.25;;;27.30;;
9906;SDS011;4992;51.628;6.664;2022-08-26T03:03:59;30.42;;;26.67;;
9906;SDS011;4992;51.628;6.664;2022-08-26T03:06:27;31.40;;;27.98;;
9906;SDS011;4992;51.628;6.664;2022-08-26T03:08:53;28.27;;;25.40;;
9906;SDS011;4992;51.628;6.664;2022-08-26T03:11:19;30.55;;;27.40;;
9906;SDS011;4992;51.628;6.664;2022-08-26T03:13:46;31.00;;;27.58;;
9906;SDS011;4992;51.628;6.664;2022-08-26T03:16:12;28.02;;;24.95;;
9906;SDS011;4992;51.628;6.664;2022-08-26T03:18:38;27.67;;;24.92;;
9906;SDS011;4992;51.628;6.664;2022-08-26T03:21:08;28.10;;;25.23;;
9906;SDS011;4992;51.628;6.664;2022-08-26T03:23:36;28.88;;;25.92;;
9906;SDS011;4992;51.628;6.664;2022-08-26T03:26:03;29.30;;;24.40;;
9906;SDS011;4992;51.628;6.664;2022-08-26T03:28:29;28.08;;;25.08;;
9906;SDS011;4992;51.628;6.664;2022-08-26T03:30:55;27.15;;;24.40;;
9906;SDS011;4992;51.628;6.664;2022-08-26T03:33:21;27.50;;;24.77;;
9906;SDS011;4992;51.628;6.664;2022-08-26T03:35:48;28.77;;;25.40;;
9906;SDS011;4992;51.628;6.664;2022-08-26T03:38:15;28.92;;;25.92;;
9906;SDS011;4992;51.628;6.664;2022-08-26T03:40:41;26.42;;;23.83;;
9906;SDS011;4992;51.628;6.664;2022-08-26T03:43:07;27.25;;;24.35;;
9906;SDS011;4992;51.628;6.664;2022-08-26T03:45:34;26.98;;;24.10;;
9906;SDS011;4992;51.628;6.664;2022-08-26T03:48:01;29.10;;;24.25;;
9906;SDS011;4992;51.628;6.664;2022-08-26T03:50:27;25.40;;;22.75;;
9906;SDS011;4992;51.628;6.664;2022-08-26T03:52:53;24.02;;;21.58;;
9906;SDS011;4992;51.628;6.664;2022-08-26T03:55:19;27.13;;;23.70;;
9906;SDS011;4992;51.628;6.664;2022-08-26T03:57:47;25.30;;;22.63;;
9906;SDS011;4992;51.628;6.664;2022-08-26T04:00:13;25.05;;;22.23;;
9906;SDS011;4992;51.628;6.664;2022-08-26T04:02:44;28.60;;;24.27;;
9906;SDS011;4992;51.628;6.664;2022-08-26T04:05:11;29.08;;;25.88;;
9906;SDS011;4992;51.628;6.664;2022-08-26T04:07:38;25.87;;;23.20;;
9906;SDS011;4992;51.628;6.664;2022-08-26T04:10:04;27.67;;;25.00;;
9906;SDS011;4992;51.628;6.664;2022-08-26T04:12:31;28.65;;;24.90;;
9906;SDS011;4992;51.628;6.664;2022-08-26T04:14:57;27.77;;;24.90;;
9906;SDS011;4992;51.628;6.664;2022-08-26T04:17:22;26.20;;;23.58;;
9906;SDS011;4992;51.628;6.664;2022-08-26T04:19:50;26.05;;;22.85;;
9906;SDS011;4992;51.628;6.664;2022-08-26T04:22:18;24.20;;;21.70;;
9906;SDS011;4992;51.628;6.664;2022-08-26T04:24:43;25.63;;;22.67;;
9906;SDS011;4992;51.628;6.664;2022-08-26T04:27:10;25.02;;;22.42;;
9906;SDS011;4992;51.628;6.664;2022-08-26T04:29:36;26.17;;;21.50;;
9906;SDS011;4992;51.628;6.664;2022-08-26T04:32:03;26.00;;;21.95;;
9906;SDS011;4992;51.628;6.664;2022-08-26T04:34:28;23.98;;;20.83;;
9906;SDS011;4992;51.628;6.664;2022-08-26T04:36:54;22.83;;;20.52;;
9906;SDS011;4992;51.628;6.664;2022-08-26T04:39:20;22.25;;;19.98;;
9906;SDS011;4992;51.628;6.664;2022-08-26T04:41:46;21.20;;;19.30;;
9906;SDS011;4992;51.628;6.664;2022-08-26T04:44:12;21.40;;;19.23;;
9906;SDS011;4992;51.628;6.664;2022-08-26T04:46:39;20.80;;;18.60;;
9906;SDS011;4992;51.628;6.664;2022-08-26T04:49:05;21.30;;;19.13;;
9906;SDS011;4992;51.628;6.664;2022-08-26T04:51:32;20.63;;;18.63;;
9906;SDS011;4992;51.628;6.664;2022-08-26T04:53:59;20.00;;;18.00;;
9906;SDS011;4992;51.628;6.664;2022-08-26T04:56:25;22.73;;;18.00;;
9906;SDS011;4992;51.628;6.664;2022-08-26T04:58:52;20.60;;;18.15;;
9906;SDS011;4992;51.628;6.664;2022-08-26T05:01:19;19.77;;;17.73;;
9906;SDS011;4992;51.628;6.664;2022-08-26T05:03:45;19.50;;;17.50;;
9906;SDS011;4992;51.628;6.664;2022-08-26T05:06:11;25.38;;;18.33;;
9906;SDS011;4992;51.628;6.664;2022-08-26T05:08:37;19.55;;;17.50;;
9906;SDS011;4992;51.628;6.664;2022-08-26T05:11:03;21.67;;;17.48;;
9906;SDS011;4992;51.628;6.664;2022-08-26T05:13:30;20.00;;;17.92;;
9906;SDS011;4992;51.628;6.664;2022-08-26T05:15:56;20.20;;;18.02;;
9906;SDS011;4992;51.628;6.664;2022-08-26T05:18:25;18.48;;;16.58;;
9906;SDS011;4992;51.628;6.664;2022-08-26T05:20:53;18.63;;;16.63;;
9906;SDS011;4992;51.628;6.664;2022-08-26T05:23:19;20.20;;;17.05;;
9906;SDS011;4992;51.628;6.664;2022-08-26T05:25:47;18.80;;;16.83;;
9906;SDS011;4992;51.628;6.664;2022-08-26T05:28:14;18.27;;;16.38;;
9906;SDS011;4992;51.628;6.664;2022-08-26T05:30:41;18.98;;;16.88;;
9906;SDS011;4992;51.628;6.664;2022-08-26T05:33:08;18.88;;;15.35;;
9906;SDS011;4992;51.628;6.664;2022-08-26T05:35:34;16.52;;;14.93;;
9906;SDS011;4992;51.628;6.664;2022-08-26T05:38:02;16.13;;;13.90;;
9906;SDS011;4992;51.628;6.664;2022-08-26T05:40:34;18.27;;;14.20;;
9906;SDS011;4992;51.628;6.664;2022-08-26T05:43:01;17.25;;;14.43;;
9906;SDS011;4992;51.628;6.664;2022-08-26T05:45:31;18.25;;;14.55;;
9906;SDS011;4992;51.628;6.664;2022-08-26T05:47:57;15.75;;;14.25;;
9906;SDS011;4992;51.628;6.664;2022-08-26T05:50:23;17.35;;;14.38;;
9906;SDS011;4992;51.628;6.664;2022-08-26T05:52:49;17.35;;;13.93;;
9906;SDS011;4992;51.628;6.664;2022-08-26T05:55:16;17.70;;;13.55;;
9906;SDS011;4992;51.628;6.664;2022-08-26T05:57:42;14.40;;;13.05;;
9906;SDS011;4992;51.628;6.664;2022-08-26T06:00:08;15.00;;;13.38;;
9906;SDS011;4992;51.628;6.664;2022-08-26T06:02:35;17.73;;;13.70;;
9906;SDS011;4992;51.628;6.664;2022-08-26T06:05:01;13.77;;;12.27;;
9906;SDS011;4992;51.628;6.664;2022-08-26T06:07:26;14.75;;;13.15;;
9906;SDS011;4992;51.628;6.664;2022-08-26T06:10:11;17.58;;;12.80;;
9906;SDS011;4992;51.628;6.664;2022-08-26T06:12:38;15.45;;;13.85;;
9906;SDS011;4992;51.628;6.664;2022-08-26T06:15:03;13.82;;;12.55;;
9906;SDS011;4992;51.628;6.664;2022-08-26T06:17:29;13.48;;;12.20;;
9906;SDS011;4992;51.628;6.664;2022-08-26T06:19:55;15.65;;;13.13;;
9906;SDS011;4992;51.628;6.664;2022-08-26T06:22:22;17.02;;;13.25;;
9906;SDS011;4992;51.628;6.664;2022-08-26T06:25:06;12.65;;;11.30;;
9906;SDS011;4992;51.628;6.664;2022-08-26T06:27:51;14.60;;;10.85;;
9906;SDS011;4992;51.628;6.664;2022-08-26T06:30:16;14.27;;;11.20;;
9906;SDS011;4992;51.628;6.664;2022-08-26T06:32:42;12.68;;;10.07;;
9906;SDS011;4992;51.628;6.664;2022-08-26T06:35:07;13.85;;;9.43;;
9906;SDS011;4992;51.628;6.664;2022-08-26T06:37:33;11.15;;;8.60;;
9906;SDS011;4992;51.628;6.664;2022-08-26T06:39:58;9.98;;;8.25;;
9906;SDS011;4992;51.628;6.664;2022-08-26T06:42:24;10.48;;;8.52;;
9906;SDS011;4992;51.628;6.664;2022-08-26T06:44:49;10.25;;;7.88;;
9906;SDS011;4992;51.628;6.664;2022-08-26T06:47:15;11.75;;;7.22;;
9906;SDS011;4992;51.628;6.664;2022-08-26T06:49:40;10.93;;;8.27;;
9906;SDS011;4992;51.628;6.664;2022-08-26T06:52:06;11.18;;;8.02;;
9906;SDS011;4992;51.628;6.664;2022-08-26T06:54:31;8.98;;;8.07;;
9906;SDS011;4992;51.628;6.664;2022-08-26T06:56:57;10.07;;;7.78;;
9906;SDS011;4992;51.628;6.664;2022-08-26T06:59:24;8.57;;;7.43;;
9906;SDS011;4992;51.628;6.664;2022-08-26T07:01:49;10.10;;;7.80;;
9906;SDS011;4992;51.628;6.664;2022-08-26T07:04:16;10.85;;;7.45;;
9906;SDS011;4992;51.628;6.664;2022-08-26T07:06:42;12.02;;;8.40;;
9906;SDS011;4992;51.628;6.664;2022-08-26T07:09:14;8.90;;;7.72;;
9906;SDS011;4992;51.628;6.664;2022-08-26T07:11:40;9.10;;;7.53;;
9906;SDS011;4992;51.628;6.664;2022-08-26T07:14:06;15.07;;;7.40;;
9906;SDS011;4992;51.628;6.664;2022-08-26T07:16:33;8.00;;;6.55;;
9906;SDS011;4992;51.628;6.664;2022-08-26T07:18:58;7.97;;;5.88;;
9906;SDS011;4992;51.628;6.664;2022-08-26T07:21:24;6.88;;;5.07;;
9906;SDS011;4992;51.628;6.664;2022-08-26T07:23:51;10.40;;;5.13;;
9906;SDS011;4992;51.628;6.664;2022-08-26T07:26:19;9.85;;;4.43;;
9906;SDS011;4992;51.628;6.664;2022-08-26T07:28:48;7.57;;;4.03;;
9906;SDS011;4992;51.628;6.664;2022-08-26T07:31:16;8.35;;;4.35;;
9906;SDS011;4992;51.628;6.664;2022-08-26T07:33:42;8.05;;;4.13;;
9906;SDS011;4992;51.628;6.664;2022-08-26T07:36:09;8.90;;;4.07;;
9906;SDS011;4992;51.628;6.664;2022-08-26T07:38:36;8.52;;;4.55;;
9906;SDS011;4992;51.628;6.664;2022-08-26T07:41:04;5.85;;;4.22;;
9906;SDS011;4992;51.628;6.664;2022-08-26T07:43:31;8.07;;;4.57;;
9906;SDS011;4992;51.628;6.664;2022-08-26T07:46:00;9.52;;;4.88;;
9906;SDS011;4992;51.628;6.664;2022-08-26T07:48:26;7.50;;;4.63;;
9906;SDS011;4992;51.628;6.664;2022-08-26T07:50:52;5.82;;;3.55;;
9906;SDS011;4992;51.628;6.664;2022-08-26T07:53:17;7.68;;;3.75;;
9906;SDS011;4992;51.628;6.664;2022-08-26T07:55:44;5.88;;;3.15;;
9906;SDS011;4992;51.628;6.664;2022-08-26T07:58:10;8.00;;;3.80;;
9906;SDS011;4992;51.628;6.664;2022-08-26T08:00:35;3.55;;;3.13;;
9906;SDS011;4992;51.628;6.664;2022-08-26T08:03:02;7.22;;;4.20;;
9906;SDS011;4992;51.628;6.664;2022-08-26T08:05:29;10.57;;;3.50;;
9906;SDS011;4992;51.628;6.664;2022-08-26T08:07:57;9.57;;;4.10;;
9906;SDS011;4992;51.628;6.664;2022-08-26T08:10:24;7.07;;;3.70;;
9906;SDS011;4992;51.628;6.664;2022-08-26T08:12:51;4.88;;;3.33;;
9906;SDS011;4992;51.628;6.664;2022-08-26T08:15:18;4.93;;;3.55;;
9906;SDS011;4992;51.628;6.664;2022-08-26T08:17:45;5.82;;;3.25;;
9906;SDS011;4992;51.628;6.664;2022-08-26T08:20:11;3.13;;;2.75;;
9906;SDS011;4992;51.628;6.664;2022-08-26T08:22:37;6.07;;;2.95;;
9906;SDS011;4992;51.628;6.664;2022-08-26T08:25:04;7.22;;;3.00;;
9906;SDS011;4992;51.628;6.664;2022-08-26T08:27:34;7.47;;;3.15;;
9906;SDS011;4992;51.628;6.664;2022-08-26T08:30:02;4.47;;;3.28;;
9906;SDS011;4992;51.628;6.664;2022-08-26T08:32:28;7.55;;;3.78;;
9906;SDS011;4992;51.628;6.664;2022-08-26T08:34:54;7.85;;;3.17;;
9906;SDS011;4992;51.628;6.664;2022-08-26T08:37:20;7.30;;;2.58;;
9906;SDS011;4992;51.628;6.664;2022-08-26T08:39:46;9.10;;;2.58;;
9906;SDS011;4992;51.628;6.664;2022-08-26T08:42:18;7.45;;;1.95;;
9906;SDS011;4992;51.628;6.664;2022-08-26T08:44:54;4.65;;;1.92;;
9906;SDS011;4992;51.628;6.664;2022-08-26T08:47:26;5.90;;;2.63;;
9906;SDS011;4992;51.628;6.664;2022-08-26T08:50:09;4.65;;;2.30;;
9906;SDS011;4992;51.628;6.664;2022-08-26T08:52:51;8.73;;;3.22;;
9906;SDS011;4992;51.628;6.664;2022-08-26T08:55:28;4.30;;;2.05;;
9906;SDS011;4992;51.628;6.664;2022-08-26T08:58:02;5.85;;;2.15;;
9906;SDS011;4992;51.628;6.664;2022-08-26T09:00:35;6.35;;;2.67;;
9906;SDS011;4992;51.628;6.664;2022-08-26T09:03:22;7.93;;;2.05;;
9906;SDS011;4992;51.628;6.664;2022-08-26T09:06:03;5.57;;;2.58;;
9906;SDS011;4992;51.628;6.664;2022-08-26T09:08:41;6.55;;;2.92;;
9906;SDS011;4992;51.628;6.664;2022-08-26T09:11:08;8.05;;;2.88;;
9906;SDS011;4992;51.628;6.664;2022-08-26T09:13:34;11.38;;;3.33;;
9906;SDS011;4992;51.628;6.664;2022-08-26T09:16:10;5.13;;;2.90;;
9906;SDS011;4992;51.628;6.664;2022-08-26T09:18:53;5.50;;;2.65;;
9906;SDS011;4992;51.628;6.664;2022-08-26T09:21:41;10.07;;;3.50;;
9906;SDS011;4992;51.628;6.664;2022-08-26T09:24:07;4.15;;;2.33;;
9906;SDS011;4992;51.628;6.664;2022-08-26T09:29:06;5.68;;;2.60;;
9906;SDS011;4992;51.628;6.664;2022-08-26T09:34:54;7.25;;;3.03;;
9906;SDS011;4992;51.628;6.664;2022-08-26T09:37:58;7.40;;;2.90;;
9906;SDS011;4992;51.628;6.664;2022-08-26T09:40:35;6.35;;;2.85;;
9906;SDS011;4992;51.628;6.664;2022-08-26T09:43:04;6.80;;;2.85;;
9906;SDS011;4992;51.628;6.664;2022-08-26T09:45:49;5.85;;;1.90;;
9906;SDS011;4992;51.628;6.664;2022-08-26T09:48:24;7.60;;;2.33;;
9906;SDS011;4992;51.628;6.664;2022-08-26T09:50:58;8.45;;;2.58;;
9906;SDS011;4992;51.628;6.664;2022-08-26T09:53:27;7.25;;;1.98;;
9906;SDS011;4992;51.628;6.664;2022-08-26T09:58:39;8.07;;;2.80;;
9906;SDS011;4992;51.628;6.664;2022-08-26T10:01:08;7.28;;;3.03;;
9906;SDS011;4992;51.628;6.664;2022-08-26T10:04:10;5.43;;;2.70;;
9906;SDS011;4992;51.628;6.664;2022-08-26T10:06:57;5.75;;;2.60;;
9906;SDS011;4992;51.628;6.664;2022-08-26T10:09:24;5.78;;;2.60;;
9906;SDS011;4992;51.628;6.664;2022-08-26T10:11:56;7.57;;;2.75;;
9906;SDS011;4992;51.628;6.664;2022-08-26T10:14:36;7.05;;;2.33;;
9906;SDS011;4992;51.628;6.664;2022-08-26T10:22:17;5.03;;;1.80;;
9906;SDS011;4992;51.628;6.664;2022-08-26T10:24:50;3.78;;;1.75;;
9906;SDS011;4992;51.628;6.664;2022-08-26T10:27:32;10.20;;;1.92;;
9906;SDS011;4992;51.628;6.664;2022-08-26T10:30:05;4.90;;;1.52;;
9906;SDS011;4992;51.628;6.664;2022-08-26T10:32:35;5.25;;;1.67;;
9906;SDS011;4992;51.628;6.664;2022-08-26T10:35:09;6.32;;;1.77;;
9906;SDS011;4992;51.628;6.664;2022-08-26T10:37:37;5.15;;;1.55;;
9906;SDS011;4992;51.628;6.664;2022-08-26T10:40:12;3.72;;;1.52;;
9906;SDS011;4992;51.628;6.664;2022-08-26T10:42:43;2.97;;;1.50;;
9906;SDS011;4992;51.628;6.664;2022-08-26T10:45:27;7.25;;;1.88;;
9906;SDS011;4992;51.628;6.664;2022-08-26T10:48:00;4.82;;;1.63;;
9906;SDS011;4992;51.628;6.664;2022-08-26T10:50:31;7.53;;;1.92;;
9906;SDS011;4992;51.628;6.664;2022-08-26T10:53:11;3.00;;;1.63;;
9906;SDS011;4992;51.628;6.664;2022-08-26T10:58:36;4.88;;;1.70;;
9906;SDS011;4992;51.628;6.664;2022-08-26T11:10:02;5.63;;;1.95;;
9906;SDS011;4992;51.628;6.664;2022-08-26T11:12:56;4.80;;;2.40;;
9906;SDS011;4992;51.628;6.664;2022-08-26T11:18:00;8.63;;;2.20;;
9906;SDS011;4992;51.628;6.664;2022-08-26T11:21:00;3.80;;;1.85;;
9906;SDS011;4992;51.628;6.664;2022-08-26T11:28:32;6.30;;;2.40;;
9906;SDS011;4992;51.628;6.664;2022-08-26T11:30:59;7.80;;;3.20;;
9906;SDS011;4992;51.628;6.664;2022-08-26T11:36:10;6.00;;;1.80;;
9906;SDS011;4992;51.628;6.664;2022-08-26T11:38:59;5.80;;;1.90;;
9906;SDS011;4992;51.628;6.664;2022-08-26T11:41:25;4.65;;;1.50;;
9906;SDS011;4992;51.628;6.664;2022-08-26T11:43:54;6.22;;;1.75;;
9906;SDS011;4992;51.628;6.664;2022-08-26T11:46:25;4.10;;;1.83;;
9906;SDS011;4992;51.628;6.664;2022-08-26T11:49:02;4.47;;;1.77;;
9906;SDS011;4992;51.628;6.664;2022-08-26T11:51:30;8.55;;;1.58;;
9906;SDS011;4992;51.628;6.664;2022-08-26T11:54:13;4.22;;;1.60;;
9906;SDS011;4992;51.628;6.664;2022-08-26T11:56:41;4.57;;;2.17;;
9906;SDS011;4992;51.628;6.664;2022-08-26T11:59:11;3.55;;;1.67;;
9906;SDS011;4992;51.628;6.664;2022-08-26T12:01:42;6.78;;;1.88;;
9906;SDS011;4992;51.628;6.664;2022-08-26T12:04:16;3.42;;;1.30;;
9906;SDS011;4992;51.628;6.664;2022-08-26T12:06:50;3.15;;;1.23;;
9906;SDS011;4992;51.628;6.664;2022-08-26T12:09:24;4.10;;;1.40;;
9906;SDS011;4992;51.628;6.664;2022-08-26T12:11:52;5.25;;;1.65;;
9906;SDS011;4992;51.628;6.664;2022-08-26T12:14:33;4.13;;;1.80;;
9906;SDS011;4992;51.628;6.664;2022-08-26T12:17:07;7.22;;;2.15;;
9906;SDS011;4992;51.628;6.664;2022-08-26T12:19:41;4.18;;;1.77;;
9906;SDS011;4992;51.628;6.664;2022-08-26T12:24:45;3.65;;;2.00;;
9906;SDS011;4992;51.628;6.664;2022-08-26T12:30:21;4.40;;;1.90;;
9906;SDS011;4992;51.628;6.664;2022-08-26T12:32:47;3.45;;;1.80;;
9906;SDS011;4992;51.628;6.664;2022-08-26T12:35:16;3.78;;;1.92;;
9906;SDS011;4992;51.628;6.664;2022-08-26T12:37:44;6.65;;;1.90;;
9906;SDS011;4992;51.628;6.664;2022-08-26T12:43:07;5.38;;;1.73;;
9906;SDS011;4992;51.628;6.664;2022-08-26T12:45:37;4.45;;;1.10;;
9906;SDS011;4992;51.628;6.664;2022-08-26T12:48:11;5.13;;;1.55;;
9906;SDS011;4992;51.628;6.664;2022-08-26T12:50:46;7.65;;;4.63;;
9906;SDS011;4992;51.628;6.664;2022-08-26T12:53:18;7.90;;;1.63;;
9906;SDS011;4992;51.628;6.664;2022-08-26T12:58:23;2.90;;;1.20;;
9906;SDS011;4992;51.628;6.664;2022-08-26T13:00:52;6.72;;;1.55;;
9906;SDS011;4992;51.628;6.664;2022-08-26T13:03:28;12.07;;;1.73;;
9906;SDS011;4992;51.628;6.664;2022-08-26T13:16:37;5.05;;;1.40;;
9906;SDS011;4992;51.628;6.664;2022-08-26T13:19:09;3.80;;;1.10;;
9906;SDS011;4992;51.628;6.664;2022-08-26T13:21:43;3.58;;;1.23;;
9906;SDS011;4992;51.628;6.664;2022-08-26T13:24:19;2.47;;;1.17;;
9906;SDS011;4992;51.628;6.664;2022-08-26T13:26:47;6.70;;;1.73;;
9906;SDS011;4992;51.628;6.664;2022-08-26T13:29:13;5.55;;;2.00;;
9906;SDS011;4992;51.628;6.664;2022-08-26T13:31:40;4.30;;;1.38;;
9906;SDS011;4992;51.628;6.664;2022-08-26T13:34:10;4.88;;;1.50;;
9906;SDS011;4992;51.628;6.664;2022-08-26T13:36:38;6.28;;;1.42;;
9906;SDS011;4992;51.628;6.664;2022-08-26T13:39:04;5.75;;;1.60;;
9906;SDS011;4992;51.628;6.664;2022-08-26T13:41:30;5.65;;;1.63;;
9906;SDS011;4992;51.628;6.664;2022-08-26T13:43:56;1.88;;;1.27;;
9906;SDS011;4992;51.628;6.664;2022-08-26T13:46:23;3.38;;;1.50;;
9906;SDS011;4992;51.628;6.664;2022-08-26T13:48:49;8.68;;;1.95;;
9906;SDS011;4992;51.628;6.664;2022-08-26T13:51:15;4.43;;;1.80;;
9906;SDS011;4992;51.628;6.664;2022-08-26T13:53:42;3.58;;;1.52;;
9906;SDS011;4992;51.628;6.664;2022-08-26T13:56:08;3.83;;;1.35;;
9906;SDS011;4992;51.628;6.664;2022-08-26T13:58:33;3.30;;;1.58;;
9906;SDS011;4992;51.628;6.664;2022-08-26T14:00:59;4.63;;;1.70;;
9906;SDS011;4992;51.628;6.664;2022-08-26T14:03:24;3.70;;;1.50;;
9906;SDS011;4992;51.628;6.664;2022-08-26T14:05:51;4.38;;;1.52;;
9906;SDS011;4992;51.628;6.664;2022-08-26T14:08:17;4.30;;;1.88;;
9906;SDS011;4992;51.628;6.664;2022-08-26T14:10:43;4.88;;;1.55;;
9906;SDS011;4992;51.628;6.664;2022-08-26T14:13:08;3.83;;;1.40;;
9906;SDS011;4992;51.628;6.664;2022-08-26T14:15:34;6.20;;;1.35;;
9906;SDS011;4992;51.628;6.664;2022-08-26T14:18:02;3.80;;;1.50;;
9906;SDS011;4992;51.628;6.664;2022-08-26T14:20:29;4.47;;;1.73;;
9906;SDS011;4992;51.628;6.664;2022-08-26T14:22:56;4.65;;;1.70;;
9906;SDS011;4992;51.628;6.664;2022-08-26T14:25:22;3.30;;;1.10;;
9906;SDS011;4992;51.628;6.664;2022-08-26T14:27:49;3.95;;;1.45;;
9906;SDS011;4992;51.628;6.664;2022-08-26T14:30:16;2.80;;;1.23;;
9906;SDS011;4992;51.628;6.664;2022-08-26T14:32:43;7.80;;;1.38;;
9906;SDS011;4992;51.628;6.664;2022-08-26T14:35:12;4.88;;;1.10;;
9906;SDS011;4992;51.628;6.664;2022-08-26T14:37:41;10.23;;;4.30;;
9906;SDS011;4992;51.628;6.664;2022-08-26T14:40:07;4.75;;;1.75;;
9906;SDS011;4992;51.628;6.664;2022-08-26T14:42:33;3.10;;;1.52;;
9906;SDS011;4992;51.628;6.664;2022-08-26T14:45:00;2.85;;;1.05;;
9906;SDS011;4992;51.628;6.664;2022-08-26T14:47:29;4.03;;;1.20;;
9906;SDS011;4992;51.628;6.664;2022-08-26T14:49:54;3.53;;;1.13;;
9906;SDS011;4992;51.628;6.664;2022-08-26T14:52:20;1.45;;;0.85;;
9906;SDS011;4992;51.628;6.664;2022-08-26T14:54:45;4.90;;;1.10;;
9906;SDS011;4992;51.628;6.664;2022-08-26T14:57:11;3.00;;;1.10;;
9906;SDS011;4992;51.628;6.664;2022-08-26T14:59:39;2.08;;;1.10;;
9906;SDS011;4992;51.628;6.664;2022-08-26T15:02:07;5.32;;;0.80;;
9906;SDS011;4992;51.628;6.664;2022-08-26T15:04:35;2.60;;;1.20;;
9906;SDS011;4992;51.628;6.664;2022-08-26T15:07:02;5.25;;;1.60;;
9906;SDS011;4992;51.628;6.664;2022-08-26T15:09:31;5.85;;;1.15;;
9906;SDS011;4992;51.628;6.664;2022-08-26T15:11:59;4.00;;;1.05;;
9906;SDS011;4992;51.628;6.664;2022-08-26T15:14:25;2.97;;;0.98;;
9906;SDS011;4992;51.628;6.664;2022-08-26T15:16:52;3.03;;;1.13;;
9906;SDS011;4992;51.628;6.664;2022-08-26T15:19:20;3.38;;;1.15;;
9906;SDS011;4992;51.628;6.664;2022-08-26T15:21:46;4.38;;;1.10;;
9906;SDS011;4992;51.628;6.664;2022-08-26T15:24:13;3.80;;;1.08;;
9906;SDS011;4992;51.628;6.664;2022-08-26T15:26:40;2.95;;;1.35;;
9906;SDS011;4992;51.628;6.664;2022-08-26T15:29:06;3.08;;;1.00;;
9906;SDS011;4992;51.628;6.664;2022-08-26T15:31:32;4.05;;;1.88;;
9906;SDS011;4992;51.628;6.664;2022-08-26T15:34:08;3.17;;;1.10;;
9906;SDS011;4992;51.628;6.664;2022-08-26T15:36:35;5.28;;;0.85;;
9906;SDS011;4992;51.628;6.664;2022-08-26T15:39:02;2.78;;;0.95;;
9906;SDS011;4992;51.628;6.664;2022-08-26T15:41:30;5.20;;;0.98;;
9906;SDS011;4992;51.628;6.664;2022-08-26T15:43:56;3.78;;;0.80;;
9906;SDS011;4992;51.628;6.664;2022-08-26T15:46:22;5.25;;;1.38;;
9906;SDS011;4992;51.628;6.664;2022-08-26T15:48:47;5.05;;;1.00;;
9906;SDS011;4992;51.628;6.664;2022-08-26T15:51:17;3.53;;;0.93;;
9906;SDS011;4992;51.628;6.664;2022-08-26T15:53:49;5.07;;;0.90;;
9906;SDS011;4992;51.628;6.664;2022-08-26T15:56:15;6.68;;;1.17;;
9906;SDS011;4992;51.628;6.664;2022-08-26T15:58:41;5.10;;;0.70;;
9906;SDS011;4992;51.628;6.664;2022-08-26T16:01:07;2.80;;;1.00;;
9906;SDS011;4992;51.628;6.664;2022-08-26T16:03:33;4.60;;;0.90;;
9906;SDS011;4992;51.628;6.664;2022-08-26T16:05:59;2.72;;;0.80;;
9906;SDS011;4992;51.628;6.664;2022-08-26T16:08:25;3.10;;;1.23;;
9906;SDS011;4992;51.628;6.664;2022-08-26T16:10:51;5.38;;;1.17;;